createdAt,value
2018-10-05T09:22:27.158Z,1019.10
2018-10-05T09:23:26.953Z,1019.08
2018-10-05T09:24:26.911Z,1019.13
2018-10-05T09:25:27.092Z,1019.13
2018-10-05T09:26:27.069Z,1019.15
2018-10-05T09:27:26.855Z,1019.06
2018-10-05T09:28:26.826Z,1019.05
2018-10-05T09:29:27.008Z,1019.02
2018-10-05T09:30:26.823Z,1019.02
2018-10-05T09:31:26.969Z,1019.05
2018-10-05T09:32:26.958Z,1019.06
2018-10-05T09:33:26.928Z,1019.02
2018-10-05T09:34:26.916Z,1019.02
2018-10-05T09:35:27.093Z,1019.04
2018-10-05T09:36:26.881Z,1019.05
2018-10-05T09:37:29.516Z,1019.01
2018-10-05T09:38:26.835Z,1019.01
2018-10-05T09:39:26.832Z,1018.98
2018-10-05T09:40:26.600Z,1018.93
2018-10-05T09:41:26.789Z,1018.91
2018-10-05T09:42:26.561Z,1018.94
2018-10-05T09:43:26.755Z,1018.90
2018-10-05T09:44:26.726Z,1018.91
2018-10-05T09:45:26.508Z,1018.95
2018-10-05T09:46:26.697Z,1018.95
2018-10-05T09:47:26.674Z,1018.92
2018-10-05T09:48:26.668Z,1018.90
2018-10-05T09:49:27.650Z,1018.89
2018-10-05T09:50:26.630Z,1018.85
2018-10-05T09:51:26.608Z,1018.84
2018-10-05T09:52:26.743Z,1018.82
2018-10-05T09:53:26.368Z,1018.82
2018-10-05T09:54:26.557Z,1018.79
2018-10-05T09:55:26.537Z,1018.75
2018-10-05T09:56:29.347Z,1018.74
2018-10-05T09:57:26.499Z,1018.72
2018-10-05T09:58:26.495Z,1018.65
2018-10-05T09:59:29.896Z,1018.71
2018-10-05T10:00:26.453Z,1018.67
2018-10-05T10:01:26.441Z,1018.64
2018-10-05T10:02:26.416Z,1018.57
2018-10-05T10:03:26.417Z,1018.60
2018-10-05T10:04:26.380Z,1018.55
2018-10-05T10:05:26.169Z,1018.57
2018-10-05T10:07:08.500Z,1018.58
2018-10-05T10:08:50.639Z,1018.55
2018-10-05T10:09:50.437Z,1018.49
2018-10-05T10:10:54.039Z,1018.48
2018-10-05T10:11:50.595Z,1018.50
2018-10-05T10:13:32.731Z,1018.44
2018-10-05T10:14:32.515Z,1018.41
2018-10-05T10:15:35.347Z,1018.44
2018-10-05T10:17:16.048Z,1018.45
2018-10-05T10:18:15.632Z,1018.39
2018-10-05T10:19:14.599Z,1018.41
2018-10-05T10:20:15.398Z,1018.39
2018-10-05T10:21:15.985Z,1018.32
2018-10-05T10:22:14.754Z,1018.31
2018-10-05T10:23:14.733Z,1018.39
2018-10-05T10:24:17.946Z,1018.41
2018-10-05T10:25:14.701Z,1018.41
2018-10-05T10:26:14.480Z,1018.41
2018-10-05T10:27:14.463Z,1018.44
2018-10-05T10:30:21.113Z,1018.31
2018-10-05T10:31:21.098Z,1018.38
2018-10-05T10:33:03.233Z,1018.43
2018-10-05T10:34:45.392Z,1018.45
2018-10-05T10:35:46.570Z,1018.47
2018-10-05T10:37:27.495Z,1018.53
2018-10-05T10:38:27.277Z,1018.51
2018-10-05T10:39:27.252Z,1018.62
2018-10-05T10:40:27.246Z,1018.68
2018-10-05T10:41:27.217Z,1018.78
2018-10-05T10:42:27.224Z,1018.76
2018-10-05T10:43:27.179Z,1018.64
2018-10-05T10:44:27.165Z,1018.67
2018-10-05T10:45:27.150Z,1018.71
2018-10-05T10:47:51.906Z,1018.80
2018-10-05T10:48:51.899Z,1018.91
2018-10-05T10:49:51.873Z,1019.08
2018-10-05T10:50:51.657Z,1019.07
2018-10-05T10:57:16.051Z,1020.09
2018-10-05T10:57:39.380Z,1020.16
2018-10-05T10:58:35.540Z,1020.24
2018-10-05T10:59:35.529Z,1020.27
2018-10-05T11:00:35.527Z,1020.25
2018-10-05T11:01:35.288Z,1020.17
2018-10-05T11:02:35.475Z,1020.04
2018-10-05T11:03:35.267Z,1020.09
2018-10-05T11:04:35.308Z,1019.99
2018-10-05T11:05:35.222Z,1020.02
2018-10-05T11:06:35.211Z,1019.98
2018-10-05T11:07:35.208Z,1019.78
2018-10-05T11:09:17.533Z,1019.85
2018-10-05T11:11:17.503Z,1019.88
2018-10-05T11:12:59.641Z,1019.70
2018-10-05T11:13:59.626Z,1019.61
2018-10-05T11:14:59.611Z,1019.78
2018-10-05T11:15:59.594Z,1019.69
2018-10-05T11:18:23.895Z,1019.65
2018-10-05T11:19:23.877Z,1019.72
2018-10-05T11:20:23.871Z,1019.70
2018-10-05T11:21:23.849Z,1019.68
2018-10-05T11:22:23.829Z,1019.48
2018-10-05T11:23:23.851Z,1019.64
2018-10-05T11:24:24.402Z,1019.68
2018-10-05T11:26:23.763Z,1019.61
2018-10-05T11:27:23.746Z,1019.64
2018-10-05T11:28:23.733Z,1019.58
2018-10-05T11:29:23.713Z,1019.61
2018-10-05T11:30:23.700Z,1019.47
2018-10-05T11:31:23.681Z,1019.39
2018-10-05T11:32:23.664Z,1019.48
2018-10-05T11:33:23.649Z,1019.40
2018-10-05T11:34:23.632Z,1019.32
2018-10-05T11:35:23.623Z,1019.34
2018-10-05T11:36:23.400Z,1019.28
2018-10-05T11:37:23.383Z,1019.27
2018-10-05T11:38:23.570Z,1019.23
2018-10-05T11:39:23.555Z,1019.17
2018-10-05T11:40:23.537Z,1019.18
2018-10-05T11:41:23.526Z,1019.09
2018-10-05T11:42:23.507Z,1019.04
2018-10-05T11:43:26.111Z,1018.99
2018-10-05T11:44:23.483Z,1018.99
2018-10-05T11:45:23.461Z,1018.90
2018-10-05T11:46:23.508Z,1018.83
2018-10-05T11:47:23.225Z,1018.80
2018-10-05T11:48:23.218Z,1018.75
2018-10-05T11:49:23.405Z,1018.70
2018-10-05T11:50:23.380Z,1018.72
2018-10-05T11:51:23.364Z,1018.62
2018-10-05T11:52:23.206Z,1018.61
2018-10-05T11:53:23.131Z,1018.54
2018-10-05T11:54:23.117Z,1018.53
2018-10-05T11:55:23.100Z,1018.50
2018-10-05T11:56:23.091Z,1018.48
2018-10-05T11:57:23.070Z,1018.44
2018-10-05T11:58:23.102Z,1018.42
2018-10-05T11:59:23.442Z,1018.51
2018-10-05T12:00:23.024Z,1018.47
2018-10-05T12:01:23.008Z,1018.40
2018-10-05T12:02:23.032Z,1018.36
2018-10-05T12:03:23.147Z,1018.37
2018-10-05T12:04:25.784Z,1018.31
2018-10-05T12:05:23.148Z,1018.36
2018-10-05T12:06:23.135Z,1018.36
2018-10-05T12:07:23.114Z,1018.27
2018-10-05T12:08:23.161Z,1018.26
2018-10-05T12:09:23.084Z,1018.26
2018-10-05T12:10:23.069Z,1018.25
2018-10-05T12:11:23.052Z,1018.27
2018-10-05T12:12:23.040Z,1018.26
2018-10-05T12:13:22.940Z,1018.26
2018-10-05T12:14:23.010Z,1018.16
2018-10-05T12:15:22.794Z,1018.14
2018-10-05T12:16:22.774Z,1018.11
2018-10-05T12:17:22.756Z,1018.08
2018-10-05T12:18:22.852Z,1018.05
2018-10-05T12:19:22.934Z,1018.05
2018-10-05T12:20:22.912Z,1017.93
2018-10-05T12:21:22.899Z,1017.94
2018-10-05T12:22:22.897Z,1017.91
2018-10-05T12:23:22.969Z,1017.91
2018-10-05T12:24:22.850Z,1017.77
2018-10-05T12:25:22.833Z,1017.80
2018-10-05T12:26:22.624Z,1017.74
2018-10-05T12:27:22.600Z,1017.79
2018-10-05T12:28:22.666Z,1017.65
2018-10-05T12:29:22.570Z,1017.71
2018-10-05T12:30:22.555Z,1017.75
2018-10-05T12:31:22.538Z,1017.59
2018-10-05T12:32:22.524Z,1017.67
2018-10-05T12:33:22.590Z,1017.61
2018-10-05T12:34:22.493Z,1017.65
2018-10-05T12:35:22.484Z,1017.57
2018-10-05T12:36:22.461Z,1017.52
2018-10-05T12:37:22.444Z,1017.62
2018-10-05T12:38:22.429Z,1017.52
2018-10-05T12:39:22.412Z,1017.55
2018-10-05T12:40:22.397Z,1017.62
2018-10-05T12:41:22.381Z,1017.54
2018-10-05T12:42:22.366Z,1017.59
2018-10-05T12:43:22.658Z,1017.57
2018-10-05T12:44:22.332Z,1017.52
2018-10-05T12:45:22.321Z,1017.46
2018-10-05T12:46:22.310Z,1017.44
2018-10-05T12:47:22.288Z,1017.44
2018-10-05T12:48:22.472Z,1017.43
2018-10-05T12:49:22.255Z,1017.40
2018-10-05T12:50:22.238Z,1017.32
2018-10-05T12:51:22.224Z,1017.27
2018-10-05T12:52:22.204Z,1017.39
2018-10-05T12:53:22.190Z,1017.39
2018-10-05T12:54:22.173Z,1017.36
2018-10-05T12:55:22.156Z,1017.36
2018-10-05T12:56:22.141Z,1017.26
2018-10-05T12:57:22.124Z,1017.32
2018-10-05T12:58:22.110Z,1017.30
2018-10-05T12:59:22.093Z,1017.28
2018-10-05T13:00:22.079Z,1017.16
2018-10-05T13:01:22.063Z,1017.21
2018-10-05T13:02:22.248Z,1017.23
2018-10-05T13:03:22.380Z,1017.15
2018-10-05T13:04:22.013Z,1017.30
2018-10-05T13:05:22.204Z,1017.22
2018-10-05T13:06:21.981Z,1017.32
2018-10-05T13:07:21.964Z,1017.36
2018-10-05T13:08:21.952Z,1017.61
2018-10-05T13:09:21.933Z,1017.59
2018-10-05T13:10:21.915Z,1017.17
2018-10-05T13:11:21.899Z,1017.16
2018-10-05T13:12:21.884Z,1017.14
2018-10-05T13:13:21.873Z,1017.32
2018-10-05T13:14:21.851Z,1017.28
2018-10-05T13:15:21.834Z,1016.91
2018-10-05T13:16:21.817Z,1016.59
2018-10-05T13:17:21.803Z,1016.60
2018-10-05T13:18:21.790Z,1016.38
2018-10-05T13:19:21.770Z,1016.38
2018-10-05T13:20:21.756Z,1016.25
2018-10-05T13:21:21.735Z,1016.39
2018-10-05T13:22:21.732Z,1016.29
2018-10-05T13:23:21.704Z,1016.27
2018-10-05T13:24:21.685Z,1016.32
2018-10-05T13:25:21.669Z,1016.18
2018-10-05T13:26:21.663Z,1016.12
2018-10-05T13:27:21.635Z,1016.09
2018-10-05T13:28:21.819Z,1016.01
2018-10-05T13:30:03.974Z,1016.20
2018-10-05T13:31:03.943Z,1016.14
2018-10-05T13:32:03.725Z,1016.08
2018-10-05T13:33:03.706Z,1016.11
2018-10-05T13:34:04.544Z,1016.18
2018-10-05T13:35:03.873Z,1016.06
2018-10-05T13:36:03.655Z,1015.89
2018-10-05T13:37:03.633Z,1015.60
2018-10-05T13:38:03.621Z,1015.40
2018-10-05T13:39:03.597Z,1015.51
2018-10-05T13:40:03.580Z,1015.54
2018-10-05T13:41:03.569Z,1015.77
2018-10-05T13:42:03.656Z,1015.83
2018-10-05T13:43:03.529Z,1015.99
2018-10-05T13:44:03.514Z,1016.09
2018-10-05T13:45:03.498Z,1016.04
2018-10-05T13:46:03.483Z,1016.04
2018-10-05T13:47:03.457Z,1016.00
2018-10-05T13:48:03.439Z,1016.06
2018-10-05T13:49:03.422Z,1016.02
2018-10-05T13:50:03.408Z,1015.97
2018-10-05T13:51:03.387Z,1016.18
2018-10-05T13:52:03.371Z,1016.26
2018-10-05T13:53:03.352Z,1016.04
2018-10-05T13:54:03.339Z,1015.91
2018-10-05T13:55:03.317Z,1015.89
2018-10-05T13:56:03.305Z,1015.87
2018-10-05T13:57:03.282Z,1015.82
2018-10-05T13:58:03.265Z,1015.79
2018-10-05T13:59:03.249Z,1015.66
2018-10-05T14:00:03.232Z,1015.64
2018-10-05T14:01:03.213Z,1015.73
2018-10-05T14:02:03.199Z,1015.68
2018-10-05T14:03:03.380Z,1015.66
2018-10-05T14:04:03.361Z,1015.66
2018-10-05T14:05:03.345Z,1015.56
2018-10-05T14:06:03.328Z,1015.60
2018-10-05T14:07:03.330Z,1015.43
2018-10-05T14:08:03.499Z,1015.44
2018-10-05T14:09:03.274Z,1015.45
2018-10-05T14:10:03.259Z,1015.34
2018-10-05T14:11:03.845Z,1015.41
2018-10-05T14:12:03.226Z,1015.47
2018-10-05T14:13:03.005Z,1015.39
2018-10-05T14:14:03.192Z,1015.44
2018-10-05T14:15:02.973Z,1015.39
2018-10-05T14:16:02.948Z,1015.38
2018-10-05T14:17:02.936Z,1015.38
2018-10-05T14:18:02.912Z,1015.29
2018-10-05T14:19:02.946Z,1015.32
2018-10-05T14:20:02.881Z,1015.30
2018-10-05T14:21:02.858Z,1015.28
2018-10-05T14:22:02.845Z,1015.26
2018-10-05T14:23:02.821Z,1015.14
2018-10-05T14:24:02.805Z,1015.22
2018-10-05T14:25:02.785Z,1015.17
2018-10-05T14:26:02.771Z,1015.09
2018-10-05T14:27:02.756Z,1015.08
2018-10-05T14:28:02.732Z,1015.10
2018-10-05T14:29:02.716Z,1015.08
2018-10-05T14:30:02.702Z,1015.10
2018-10-05T14:31:02.677Z,1015.10
2018-10-05T14:32:02.659Z,1015.07
2018-10-05T14:33:02.647Z,1015.08
2018-10-05T14:34:02.622Z,1015.10
2018-10-05T14:35:02.605Z,1015.04
2018-10-05T14:36:02.588Z,1014.99
2018-10-05T14:37:02.568Z,1014.94
2018-10-05T14:38:02.559Z,1015.00
2018-10-05T14:39:02.531Z,1015.04
2018-10-05T14:40:02.515Z,1014.99
2018-10-05T14:41:02.494Z,1014.98
2018-10-05T14:42:02.477Z,1014.83
2018-10-05T14:43:02.524Z,1014.94
2018-10-05T14:44:02.438Z,1014.95
2018-10-05T14:45:02.420Z,1015.00
2018-10-05T14:46:02.607Z,1014.97
2018-10-05T14:47:02.382Z,1014.94
2018-10-05T14:48:02.364Z,1014.89
2018-10-05T14:49:02.345Z,1014.77
2018-10-05T14:50:02.331Z,1014.87
2018-10-05T14:51:02.306Z,1014.79
2018-10-05T14:52:02.291Z,1014.69
2018-10-05T14:53:02.273Z,1014.82
2018-10-05T14:54:02.252Z,1014.78
2018-10-05T14:55:02.434Z,1014.64
2018-10-05T14:56:02.417Z,1014.72
2018-10-05T14:57:02.449Z,1014.72
2018-10-05T14:58:02.378Z,1014.69
2018-10-05T14:59:02.359Z,1014.67
2018-10-05T15:00:04.961Z,1014.55
2018-10-05T15:01:02.321Z,1014.65
2018-10-05T15:02:02.304Z,1014.65
2018-10-05T15:03:02.282Z,1014.59
2018-10-05T15:04:02.262Z,1014.65
2018-10-05T15:05:02.244Z,1014.57
2018-10-05T15:06:02.022Z,1014.58
2018-10-05T15:07:02.065Z,1014.56
2018-10-05T15:08:01.982Z,1014.47
2018-10-05T15:09:02.165Z,1014.56
2018-10-05T15:10:02.146Z,1014.51
2018-10-05T15:11:01.924Z,1014.46
2018-10-05T15:12:01.904Z,1014.47
2018-10-05T15:13:01.919Z,1014.49
2018-10-05T15:14:01.882Z,1014.46
2018-10-05T15:15:01.847Z,1014.46
2018-10-05T15:16:01.827Z,1014.42
2018-10-05T15:17:01.809Z,1014.33
2018-10-05T15:18:01.788Z,1014.34
2018-10-05T15:19:01.971Z,1014.39
2018-10-05T15:20:01.749Z,1014.39
2018-10-05T15:21:01.728Z,1014.35
2018-10-05T15:22:01.917Z,1014.34
2018-10-05T15:23:01.890Z,1014.35
2018-10-05T15:24:01.669Z,1014.26
2018-10-05T15:25:01.851Z,1014.30
2018-10-05T15:26:01.832Z,1014.28
2018-10-05T15:27:01.811Z,1014.25
2018-10-05T15:28:01.590Z,1014.34
2018-10-05T15:29:01.772Z,1014.33
2018-10-05T15:30:05.388Z,1014.29
2018-10-05T15:31:01.534Z,1014.18
2018-10-05T15:32:01.724Z,1014.14
2018-10-05T15:33:01.491Z,1014.12
2018-10-05T15:34:01.479Z,1014.11
2018-10-05T15:35:01.652Z,1014.20
2018-10-05T15:36:01.429Z,1014.13
2018-10-05T15:37:01.612Z,1014.12
2018-10-05T15:38:01.390Z,1014.14
2018-10-05T15:39:04.459Z,1014.16
2018-10-05T15:40:01.551Z,1014.14
2018-10-05T15:41:04.161Z,1014.10
2018-10-05T15:42:01.511Z,1014.10
2018-10-05T15:43:01.288Z,1014.10
2018-10-05T15:44:01.470Z,1014.12
2018-10-05T15:45:01.455Z,1014.08
2018-10-05T15:46:01.430Z,1014.07
2018-10-05T15:47:01.210Z,1014.04
2018-10-05T15:48:01.186Z,1014.03
2018-10-05T15:49:01.166Z,1014.03
2018-10-05T15:50:01.146Z,1014.01
2018-10-05T15:51:01.125Z,1014.04
2018-10-05T15:52:01.104Z,1014.03
2018-10-05T15:53:01.125Z,1014.04
2018-10-05T15:54:01.063Z,1013.95
2018-10-05T15:55:01.041Z,1014.05
2018-10-05T15:56:01.022Z,1013.99
2018-10-05T15:57:01.203Z,1014.01
2018-10-05T15:58:00.981Z,1013.96
2018-10-05T15:59:01.016Z,1014.04
2018-10-05T16:00:00.939Z,1013.98
2018-10-05T16:01:00.919Z,1013.84
2018-10-05T16:02:00.898Z,1013.88
2018-10-05T16:03:00.877Z,1013.95
2018-10-05T16:04:00.857Z,1013.97
2018-10-05T16:05:00.838Z,1013.95
2018-10-05T16:06:00.883Z,1013.97
2018-10-05T16:07:00.796Z,1013.92
2018-10-05T16:08:00.775Z,1013.93
2018-10-05T16:09:00.753Z,1013.94
2018-10-05T16:10:00.937Z,1013.89
2018-10-05T16:11:03.534Z,1013.93
2018-10-05T16:12:00.926Z,1013.92
2018-10-05T16:13:00.669Z,1013.87
2018-10-05T16:14:00.852Z,1013.81
2018-10-05T16:15:00.630Z,1013.82
2018-10-05T16:16:00.638Z,1013.75
2018-10-05T16:17:03.408Z,1013.79
2018-10-05T16:18:00.765Z,1013.81
2018-10-05T16:19:00.743Z,1013.79
2018-10-05T16:20:00.525Z,1013.76
2018-10-05T16:21:00.701Z,1013.81
2018-10-05T16:22:42.833Z,1013.76
2018-10-05T16:23:42.811Z,1013.72
2018-10-05T16:24:42.846Z,1013.76
2018-10-05T16:25:42.565Z,1013.72
2018-10-05T16:26:42.747Z,1013.75
2018-10-05T16:27:42.724Z,1013.73
2018-10-05T16:28:42.501Z,1013.76
2018-10-05T16:29:42.478Z,1013.73
2018-10-05T16:30:42.659Z,1013.76
2018-10-05T16:31:42.637Z,1013.69
2018-10-05T16:32:42.614Z,1013.71
2018-10-05T16:33:42.390Z,1013.71
2018-10-05T16:34:42.368Z,1013.70
2018-10-05T16:35:42.349Z,1013.71
2018-10-05T16:36:45.755Z,1013.75
2018-10-05T16:37:43.349Z,1013.72
2018-10-05T16:38:42.282Z,1013.71
2018-10-05T16:39:42.460Z,1013.69
2018-10-05T16:40:42.435Z,1013.66
2018-10-05T16:41:42.210Z,1013.62
2018-10-05T16:42:42.391Z,1013.64
2018-10-05T16:43:42.197Z,1013.66
2018-10-05T16:44:42.141Z,1013.65
2018-10-05T16:45:42.120Z,1013.53
2018-10-05T16:46:42.117Z,1013.59
2018-10-05T16:47:42.073Z,1013.56
2018-10-05T16:48:42.054Z,1013.57
2018-10-05T16:49:42.065Z,1013.58
2018-10-05T16:50:42.209Z,1013.57
2018-10-05T16:51:41.979Z,1013.57
2018-10-05T16:52:41.960Z,1013.57
2018-10-05T16:53:41.937Z,1013.58
2018-10-05T16:54:41.909Z,1013.57
2018-10-05T16:55:41.885Z,1013.61
2018-10-05T16:56:41.863Z,1013.58
2018-10-05T16:57:41.840Z,1013.63
2018-10-05T16:58:41.820Z,1013.66
2018-10-05T16:59:41.796Z,1013.60
2018-10-05T17:00:41.767Z,1013.64
2018-10-05T17:01:41.946Z,1013.63
2018-10-05T17:02:41.923Z,1013.66
2018-10-05T17:03:41.902Z,1013.60
2018-10-05T17:04:41.680Z,1013.56
2018-10-05T17:05:41.650Z,1013.57
2018-10-05T17:06:41.632Z,1013.61
2018-10-05T17:07:41.605Z,1013.61
2018-10-05T17:08:41.580Z,1013.60
2018-10-05T17:09:41.756Z,1013.57
2018-10-05T17:10:41.652Z,1013.59
2018-10-05T17:11:41.507Z,1013.56
2018-10-05T17:12:41.481Z,1013.59
2018-10-05T17:13:41.458Z,1013.60
2018-10-05T17:14:41.435Z,1013.58
2018-10-05T17:15:41.410Z,1013.56
2018-10-05T17:16:41.385Z,1013.56
2018-10-05T17:17:41.564Z,1013.52
2018-10-05T17:18:41.542Z,1013.58
2018-10-05T17:19:41.319Z,1013.62
2018-10-05T17:20:41.288Z,1013.56
2018-10-05T17:21:41.270Z,1013.60
2018-10-05T17:22:41.239Z,1013.61
2018-10-05T17:23:41.268Z,1013.59
2018-10-05T17:24:41.193Z,1013.61
2018-10-05T17:25:41.167Z,1013.59
2018-10-05T17:26:41.147Z,1013.56
2018-10-05T17:27:41.117Z,1013.57
2018-10-05T17:28:41.304Z,1013.58
2018-10-05T17:29:41.069Z,1013.61
2018-10-05T17:30:41.045Z,1013.56
2018-10-05T17:31:41.020Z,1013.60
2018-10-05T17:32:40.994Z,1013.60
2018-10-05T17:33:41.174Z,1013.53
2018-10-05T17:34:41.149Z,1013.56
2018-10-05T17:35:40.922Z,1013.58
2018-10-05T17:36:40.903Z,1013.55
2018-10-05T17:37:40.873Z,1013.57
2018-10-05T17:38:40.856Z,1013.52
2018-10-05T17:39:40.824Z,1013.54
2018-10-05T17:40:40.801Z,1013.66
2018-10-05T17:41:40.778Z,1013.55
2018-10-05T17:42:40.750Z,1013.53
2018-10-05T17:43:40.726Z,1013.58
2018-10-05T17:44:40.701Z,1013.55
2018-10-05T17:45:40.679Z,1013.55
2018-10-05T17:46:40.803Z,1013.53
2018-10-05T17:47:40.628Z,1013.52
2018-10-05T17:48:40.606Z,1013.50
2018-10-05T17:49:40.579Z,1013.49
2018-10-05T17:50:40.555Z,1013.50
2018-10-05T17:51:40.529Z,1013.47
2018-10-05T17:52:40.509Z,1013.48
2018-10-05T17:53:40.480Z,1013.48
2018-10-05T17:54:40.456Z,1013.46
2018-10-05T17:55:40.508Z,1013.42
2018-10-05T17:56:40.411Z,1013.41
2018-10-05T17:57:40.383Z,1013.40
2018-10-05T17:58:40.361Z,1013.40
2018-10-05T17:59:40.331Z,1013.42
2018-10-05T18:00:40.309Z,1013.38
2018-10-05T18:01:40.303Z,1013.36
2018-10-05T18:02:40.262Z,1013.35
2018-10-05T18:03:40.283Z,1013.36
2018-10-05T18:04:40.212Z,1013.36
2018-10-05T18:05:40.188Z,1013.30
2018-10-05T18:06:40.160Z,1013.33
2018-10-05T18:07:40.133Z,1013.33
2018-10-05T18:08:40.109Z,1013.35
2018-10-05T18:09:40.084Z,1013.32
2018-10-05T18:10:40.060Z,1013.27
2018-10-05T18:11:40.037Z,1013.30
2018-10-05T18:12:40.009Z,1013.26
2018-10-05T18:13:39.984Z,1013.31
2018-10-05T18:14:40.017Z,1013.27
2018-10-05T18:15:39.937Z,1013.22
2018-10-05T18:16:39.909Z,1013.26
2018-10-05T18:17:39.884Z,1013.28
2018-10-05T18:18:39.861Z,1013.28
2018-10-05T18:19:39.837Z,1013.24
2018-10-05T18:20:39.809Z,1013.23
2018-10-05T18:21:39.785Z,1013.23
2018-10-05T18:22:39.761Z,1013.18
2018-10-05T18:23:39.735Z,1013.16
2018-10-05T18:24:39.711Z,1013.12
2018-10-05T18:25:39.685Z,1013.15
2018-10-05T18:26:39.661Z,1013.13
2018-10-05T18:27:39.636Z,1013.16
2018-10-05T18:28:39.613Z,1013.17
2018-10-05T18:29:39.585Z,1013.14
2018-10-05T18:30:39.562Z,1013.10
2018-10-05T18:31:39.534Z,1013.04
2018-10-05T18:32:39.510Z,1013.09
2018-10-05T18:33:39.690Z,1013.00
2018-10-05T18:34:39.460Z,1013.04
2018-10-05T18:35:39.433Z,1013.07
2018-10-05T18:36:39.414Z,1013.03
2018-10-05T18:37:39.384Z,1013.03
2018-10-05T18:38:39.359Z,1012.99
2018-10-05T18:39:39.491Z,1012.99
2018-10-05T18:40:39.309Z,1012.97
2018-10-05T18:41:39.285Z,1013.00
2018-10-05T18:42:39.262Z,1013.01
2018-10-05T18:43:39.235Z,1013.00
2018-10-05T18:44:39.215Z,1012.99
2018-10-05T18:45:39.184Z,1012.97
2018-10-05T18:46:39.160Z,1012.96
2018-10-05T18:47:39.133Z,1012.97
2018-10-05T18:48:39.110Z,1012.97
2018-10-05T18:49:39.083Z,1012.95
2018-10-05T18:50:39.061Z,1012.93
2018-10-05T18:51:39.037Z,1012.95
2018-10-05T18:52:39.007Z,1012.92
2018-10-05T18:53:38.991Z,1012.98
2018-10-05T18:54:38.957Z,1012.96
2018-10-05T18:55:38.936Z,1012.98
2018-10-05T18:56:38.906Z,1012.93
2018-10-05T18:57:38.883Z,1012.95
2018-10-05T18:58:38.859Z,1012.92
2018-10-05T18:59:38.950Z,1012.91
2018-10-05T19:00:38.805Z,1012.93
2018-10-05T19:01:38.782Z,1012.93
2018-10-05T19:02:38.757Z,1012.94
2018-10-05T19:03:38.745Z,1012.93
2018-10-05T19:04:38.703Z,1012.93
2018-10-05T19:05:38.683Z,1012.91
2018-10-05T19:06:38.654Z,1012.93
2018-10-05T19:07:38.628Z,1012.93
2018-10-05T19:08:38.602Z,1012.88
2018-10-05T19:09:38.578Z,1012.91
2018-10-05T19:10:38.553Z,1012.90
2018-10-05T19:11:38.529Z,1012.88
2018-10-05T19:12:38.504Z,1012.88
2018-10-05T19:13:38.570Z,1012.85
2018-10-05T19:14:38.451Z,1012.81
2018-10-05T19:15:38.425Z,1012.82
2018-10-05T19:16:38.402Z,1012.79
2018-10-05T19:17:38.381Z,1012.81
2018-10-05T19:18:38.349Z,1012.81
2018-10-05T19:19:38.327Z,1012.78
2018-10-05T19:20:38.298Z,1012.84
2018-10-05T19:21:38.273Z,1012.81
2018-10-05T19:22:38.254Z,1012.85
2018-10-05T19:23:38.244Z,1012.87
2018-10-05T19:24:38.196Z,1012.83
2018-10-05T19:25:38.170Z,1012.84
2018-10-05T19:26:38.411Z,1012.81
2018-10-05T19:27:38.124Z,1012.84
2018-10-05T19:28:38.094Z,1012.84
2018-10-05T19:29:38.071Z,1012.81
2018-10-05T19:30:38.043Z,1012.81
2018-10-05T19:31:38.016Z,1012.76
2018-10-05T19:32:37.996Z,1012.75
2018-10-05T19:33:37.967Z,1012.75
2018-10-05T19:34:37.957Z,1012.73
2018-10-05T19:35:37.914Z,1012.74
2018-10-05T19:36:37.944Z,1012.71
2018-10-05T19:37:37.865Z,1012.72
2018-10-05T19:38:37.843Z,1012.70
2018-10-05T19:39:37.812Z,1012.68
2018-10-05T19:40:37.787Z,1012.69
2018-10-05T19:41:37.763Z,1012.64
2018-10-05T19:42:37.749Z,1012.63
2018-10-05T19:43:37.710Z,1012.59
2018-10-05T19:44:37.685Z,1012.60
2018-10-05T19:45:37.661Z,1012.60
2018-10-05T19:46:37.634Z,1012.60
2018-10-05T19:47:37.607Z,1012.61
2018-10-05T19:48:37.585Z,1012.58
2018-10-05T19:49:37.562Z,1012.57
2018-10-05T19:50:37.531Z,1012.59
2018-10-05T19:51:37.515Z,1012.57
2018-10-05T19:52:37.480Z,1012.55
2018-10-05T19:53:37.569Z,1012.58
2018-10-05T19:54:37.427Z,1012.62
2018-10-05T19:55:37.403Z,1012.59
2018-10-05T19:56:37.377Z,1012.60
2018-10-05T19:57:37.350Z,1012.62
2018-10-05T19:58:37.325Z,1012.59
2018-10-05T19:59:37.298Z,1012.62
2018-10-05T20:00:37.474Z,1012.60
2018-10-05T20:01:37.247Z,1012.58
2018-10-05T20:02:37.224Z,1012.62
2018-10-05T20:03:37.199Z,1012.62
2018-10-05T20:04:37.172Z,1012.63
2018-10-05T20:05:37.147Z,1012.58
2018-10-05T20:06:37.117Z,1012.54
2018-10-05T20:07:37.093Z,1012.54
2018-10-05T20:08:37.072Z,1012.51
2018-10-05T20:09:37.045Z,1012.52
2018-10-05T20:10:37.020Z,1012.50
2018-10-05T20:11:36.987Z,1012.46
2018-10-05T20:12:36.961Z,1012.48
2018-10-05T20:13:36.936Z,1012.46
2018-10-05T20:14:36.910Z,1012.46
2018-10-05T20:15:36.883Z,1012.44
2018-10-05T20:16:36.857Z,1012.41
2018-10-05T20:17:36.853Z,1012.43
2018-10-05T20:18:36.969Z,1012.44
2018-10-05T20:19:36.778Z,1012.44
2018-10-05T20:20:36.753Z,1012.42
2018-10-05T20:21:36.731Z,1012.39
2018-10-05T20:22:36.705Z,1012.43
2018-10-05T20:23:36.675Z,1012.34
2018-10-05T20:24:36.652Z,1012.38
2018-10-05T20:25:36.625Z,1012.35
2018-10-05T20:26:36.597Z,1012.35
2018-10-05T20:27:36.574Z,1012.33
2018-10-05T20:28:36.547Z,1012.33
2018-10-05T20:29:36.518Z,1012.32
2018-10-05T20:30:36.492Z,1012.31
2018-10-05T20:31:36.468Z,1012.34
2018-10-05T20:32:36.503Z,1012.34
2018-10-05T20:33:36.416Z,1012.33
2018-10-05T20:34:36.387Z,1012.31
2018-10-05T20:35:36.370Z,1012.31
2018-10-05T20:36:36.527Z,1012.28
2018-10-05T20:37:36.625Z,1012.31
2018-10-05T20:38:36.354Z,1012.30
2018-10-05T20:39:36.255Z,1012.28
2018-10-05T20:40:36.232Z,1012.26
2018-10-05T20:41:36.203Z,1012.27
2018-10-05T20:42:36.177Z,1012.30
2018-10-05T20:43:36.150Z,1012.27
2018-10-05T20:44:36.164Z,1012.24
2018-10-05T20:45:36.104Z,1012.25
2018-10-05T20:46:36.072Z,1012.26
2018-10-05T20:47:36.045Z,1012.24
2018-10-05T20:48:36.019Z,1012.23
2018-10-05T20:49:35.994Z,1012.17
2018-10-05T20:50:35.969Z,1012.18
2018-10-05T20:51:36.011Z,1012.18
2018-10-05T20:52:35.914Z,1012.13
2018-10-05T20:53:35.888Z,1012.15
2018-10-05T20:54:35.863Z,1012.19
2018-10-05T20:55:35.836Z,1012.11
2018-10-05T20:56:35.810Z,1012.09
2018-10-05T20:57:35.783Z,1012.11
2018-10-05T20:58:35.756Z,1012.14
2018-10-05T20:59:35.728Z,1012.11
2018-10-05T21:00:35.704Z,1012.08
2018-10-05T21:01:35.677Z,1012.08
2018-10-05T21:02:35.651Z,1012.08
2018-10-05T21:03:35.624Z,1012.02
2018-10-05T21:04:35.600Z,1012.00
2018-10-05T21:05:35.570Z,1012.01
2018-10-05T21:06:35.544Z,1012.04
2018-10-05T21:07:35.722Z,1012.03
2018-10-05T21:08:35.491Z,1012.00
2018-10-05T21:10:17.970Z,1011.97
2018-10-05T21:11:17.789Z,1011.92
2018-10-05T21:12:17.764Z,1011.95
2018-10-05T21:13:17.737Z,1011.94
2018-10-05T21:14:18.529Z,1011.90
2018-10-05T21:15:17.717Z,1011.93
2018-10-05T21:16:17.455Z,1011.90
2018-10-05T21:17:17.429Z,1011.89
2018-10-05T21:18:17.403Z,1011.89
2018-10-05T21:19:17.577Z,1011.86
2018-10-05T21:20:17.349Z,1011.86
2018-10-05T21:21:17.322Z,1011.82
2018-10-05T21:22:17.296Z,1011.82
2018-10-05T21:23:17.470Z,1011.82
2018-10-05T21:24:17.454Z,1011.83
2018-10-05T21:25:18.024Z,1011.79
2018-10-05T21:26:17.395Z,1011.80
2018-10-05T21:27:59.515Z,1011.77
2018-10-05T21:29:41.637Z,1011.74
2018-10-05T21:31:23.756Z,1011.73
2018-10-05T21:32:23.735Z,1011.75
2018-10-05T21:34:06.002Z,1011.72
2018-10-05T21:36:30.327Z,1011.70
2018-10-05T21:37:30.101Z,1011.77
2018-10-05T21:38:30.122Z,1011.75
2018-10-05T21:39:29.838Z,1011.71
2018-10-05T21:40:29.811Z,1011.75
2018-10-05T21:41:29.783Z,1011.70
2018-10-05T21:42:29.762Z,1011.67
2018-10-05T21:43:29.732Z,1011.69
2018-10-05T21:44:29.706Z,1011.69
2018-10-05T21:45:29.676Z,1011.66
2018-10-05T21:46:29.649Z,1011.66
2018-10-05T21:47:29.621Z,1011.66
2018-10-05T21:48:29.598Z,1011.67
2018-10-05T21:49:29.570Z,1011.67
2018-10-05T21:50:29.540Z,1011.66
2018-10-05T21:51:29.686Z,1011.63